KEVV/EVV METAR and TAF weather

Enter ICAO airport designator
Station Type Date Time Source
KEVV METAR 2019/08/18 18:54 UTC NOAA

KEVV 181854Z 16009KT 10SM CLR 33/22 A2993 RMK AO2 SLP129 T03280222


Station Type Date Time Source
KEVV Decoded METAR 2019/08/18 18:54 UTC NOAA

Station name not available
Aug 18, 2019 - 02:54 PM EDT / 2019.08.18 1854 UTC
Wind: from the SSE (160 degrees) at 10 MPH (9 KT):0
Visibility: 10 mile(s):0
Sky conditions: clear
Temperature: 91.0 F (32.8 C)
Heat index: 98.1 F (36.7 C):1
Dew Point: 72.0 F (22.2 C)
Relative Humidity: 53%
Pressure (altimeter): 29.93 in. Hg (1013 hPa)
ob: KEVV 181854Z 16009KT 10SM CLR 33/22 A2993 RMK AO2 SLP129 T03280222
cycle: 19

Station Type Date Time Source
KEVV TAF 2019/08/18 18:30 UTC NOAA

TAF KEVV 181727Z 1818/1918 21010G16KT P6SM SCT045 SCT250
FM182100 22009G16KT P6SM VCTS SCT040CB SCT250
FM190200 19004KT P6SM FEW100 SCT200

Example: see airport list